createdAt,value
2018-09-13T00:01:22.852Z,19.60
2018-09-13T00:03:49.961Z,19.50
2018-09-13T00:06:17.254Z,19.40
2018-09-13T00:08:44.464Z,19.40
2018-09-13T00:11:11.678Z,19.40
2018-09-13T00:13:38.954Z,19.40
2018-09-13T00:16:06.242Z,19.40
2018-09-13T00:18:33.451Z,19.40
2018-09-13T00:21:00.621Z,19.30
2018-09-13T00:23:27.905Z,19.40
2018-09-13T00:25:55.123Z,19.40
2018-09-13T00:28:22.481Z,19.30
2018-09-13T00:30:49.636Z,19.30
2018-09-13T00:33:16.880Z,19.20
2018-09-13T00:35:44.059Z,19.20
2018-09-13T00:38:11.286Z,19.20
2018-09-13T00:40:38.505Z,19.20
2018-09-13T00:43:06.478Z,19.30
2018-09-13T00:45:33.688Z,19.30
2018-09-13T00:48:00.878Z,19.20
2018-09-13T00:50:28.477Z,19.10
2018-09-13T00:52:55.684Z,19.20
2018-09-13T00:55:22.913Z,19.20
2018-09-13T00:57:50.091Z,19.20
2018-09-13T01:00:17.267Z,19.30
2018-09-13T01:02:44.483Z,19.20
2018-09-13T01:05:11.755Z,19.20
2018-09-13T01:07:38.944Z,19.20
2018-09-13T01:10:06.086Z,19.10
2018-09-13T01:12:33.208Z,19.10
2018-09-13T01:15:00.367Z,19.10
2018-09-13T01:17:27.543Z,19.30
2018-09-13T01:19:54.688Z,19.30
2018-09-13T01:22:22.055Z,19.20
2018-09-13T01:24:53.783Z,19.30
2018-09-13T01:27:21.039Z,19.20
2018-09-13T01:29:48.223Z,19.10
2018-09-13T01:32:16.404Z,19.10
2018-09-13T01:34:43.611Z,19.10
2018-09-13T01:37:10.864Z,19.20
2018-09-13T01:39:38.119Z,19.10
2018-09-13T01:42:05.430Z,19.10
2018-09-13T01:44:33.341Z,18.90
2018-09-13T01:47:01.110Z,18.80
2018-09-13T01:49:28.492Z,18.80
2018-09-13T01:51:55.810Z,18.80
2018-09-13T01:54:23.048Z,18.80
2018-09-13T01:56:50.238Z,18.70
2018-09-13T01:59:17.436Z,18.60
2018-09-13T02:01:44.662Z,18.60
2018-09-13T02:04:11.905Z,18.60
2018-09-13T02:06:39.146Z,18.70
2018-09-13T02:09:08.083Z,18.60
2018-09-13T02:11:35.252Z,18.50
2018-09-13T02:14:02.457Z,18.60
2018-09-13T02:16:29.666Z,18.70
2018-09-13T02:18:56.812Z,18.60
2018-09-13T02:21:24.044Z,18.50
2018-09-13T02:23:52.345Z,18.50
2018-09-13T02:26:19.636Z,18.50
2018-09-13T02:28:46.854Z,18.50
2018-09-13T02:31:14.092Z,18.50
2018-09-13T02:33:41.210Z,18.40
2018-09-13T02:36:08.360Z,18.40
2018-09-13T02:38:35.849Z,18.40
2018-09-13T02:41:03.052Z,18.60
2018-09-13T02:43:30.265Z,18.60
2018-09-13T02:45:57.646Z,18.50
2018-09-13T02:48:25.066Z,18.50
2018-09-13T02:50:52.202Z,18.40
2018-09-13T02:53:19.807Z,18.50
2018-09-13T02:55:47.060Z,18.40
2018-09-13T02:58:14.311Z,18.40
2018-09-13T03:00:41.849Z,18.20
2018-09-13T03:03:09.042Z,18.30
2018-09-13T03:05:36.266Z,18.50
2018-09-13T03:08:03.446Z,18.50
2018-09-13T03:10:30.720Z,18.40
2018-09-13T03:12:58.020Z,18.40
2018-09-13T03:15:25.169Z,18.40
2018-09-13T03:17:52.435Z,18.40
2018-09-13T03:20:19.676Z,18.30
2018-09-13T03:22:46.844Z,18.40
2018-09-13T03:25:15.055Z,18.30
2018-09-13T03:27:42.326Z,18.30
2018-09-13T03:30:09.792Z,18.30
2018-09-13T03:32:36.957Z,18.30
2018-09-13T03:35:04.699Z,18.40
2018-09-13T03:37:31.956Z,18.30
2018-09-13T03:40:02.378Z,18.20
2018-09-13T03:42:29.669Z,18.20
2018-09-13T03:44:56.842Z,18.20
2018-09-13T03:47:24.002Z,18.20
2018-09-13T03:49:55.389Z,18.00
2018-09-13T03:52:22.868Z,18.00
2018-09-13T03:54:50.250Z,18.00
2018-09-13T03:57:17.449Z,18.20
2018-09-13T03:59:44.664Z,18.20
2018-09-13T04:02:12.177Z,18.10
2018-09-13T04:04:39.580Z,18.00
2018-09-13T04:07:06.742Z,18.10
2018-09-13T04:09:34.113Z,18.10
2018-09-13T04:12:01.453Z,18.20
2018-09-13T04:14:28.686Z,18.20
2018-09-13T04:16:56.138Z,18.20
2018-09-13T04:19:26.731Z,18.20
2018-09-13T04:21:54.125Z,18.10
2018-09-13T04:24:21.428Z,18.10
2018-09-13T04:26:48.598Z,18.10
2018-09-13T04:29:15.954Z,18.10
2018-09-13T04:31:43.157Z,18.00
2018-09-13T04:34:10.328Z,18.10
2018-09-13T04:36:37.543Z,18.10
2018-09-13T04:39:07.360Z,18.10
2018-09-13T04:41:34.854Z,18.20
2018-09-13T04:44:02.153Z,18.30
2018-09-13T04:46:29.403Z,18.20
2018-09-13T04:48:56.657Z,18.20
2018-09-13T04:51:23.781Z,18.20
2018-09-13T04:53:52.072Z,18.20
2018-09-13T04:56:19.312Z,18.20
2018-09-13T04:58:46.676Z,18.30
2018-09-13T05:01:13.940Z,18.20
2018-09-13T05:03:41.136Z,18.10
2018-09-13T05:06:08.365Z,18.10
2018-09-13T05:08:35.567Z,18.00
2018-09-13T05:11:02.792Z,18.10
2018-09-13T05:13:30.072Z,18.20
2018-09-13T05:15:57.270Z,18.10
2018-09-13T05:18:26.663Z,18.10
2018-09-13T05:20:53.784Z,18.10
2018-09-13T05:23:20.940Z,18.10
2018-09-13T05:25:48.454Z,18.20
2018-09-13T05:28:15.673Z,18.20
2018-09-13T05:30:42.895Z,18.00
2018-09-13T05:33:10.082Z,18.10
2018-09-13T05:35:37.300Z,18.10
2018-09-13T05:38:04.671Z,18.10
2018-09-13T05:40:31.965Z,18.20
2018-09-13T05:42:59.264Z,18.10
2018-09-13T05:45:28.611Z,18.00
2018-09-13T05:47:55.845Z,18.00
2018-09-13T05:50:23.123Z,18.00
2018-09-13T05:52:50.903Z,18.00
2018-09-13T05:55:18.150Z,18.20
2018-09-13T05:57:45.417Z,18.30
2018-09-13T06:00:12.628Z,18.20
2018-09-13T06:02:39.954Z,18.10
2018-09-13T06:05:07.217Z,18.10
2018-09-13T06:07:34.476Z,18.00
2018-09-13T06:10:01.671Z,18.10
2018-09-13T06:12:28.892Z,18.00
2018-09-13T06:14:56.236Z,18.00
2018-09-13T06:17:23.363Z,17.90
2018-09-13T06:19:50.711Z,17.90
2018-09-13T06:22:18.810Z,18.10
2018-09-13T06:24:46.009Z,18.20
2018-09-13T06:27:17.588Z,18.10
2018-09-13T06:29:44.845Z,18.20
2018-09-13T06:32:12.153Z,18.20
2018-09-13T06:34:39.391Z,18.10
2018-09-13T06:37:06.712Z,18.20
2018-09-13T06:39:35.115Z,18.30
2018-09-13T06:42:02.379Z,18.50
2018-09-13T06:44:29.592Z,18.40
2018-09-13T06:46:57.239Z,18.30
2018-09-13T06:49:24.553Z,18.20
2018-09-13T06:51:52.260Z,18.30
2018-09-13T06:54:19.533Z,18.30
2018-09-13T06:56:47.519Z,18.20
2018-09-13T06:59:15.323Z,18.20
2018-09-13T07:01:42.479Z,18.40
2018-09-13T07:04:13.015Z,18.40
2018-09-13T07:06:40.233Z,18.50
2018-09-13T07:09:09.250Z,18.70
2018-09-13T07:11:36.504Z,18.50
2018-09-13T07:14:06.285Z,18.60
2018-09-13T07:16:33.508Z,18.60
2018-09-13T07:19:00.767Z,18.70
2018-09-13T07:21:28.053Z,18.70
2018-09-13T07:23:55.514Z,18.50
2018-09-13T07:26:23.819Z,18.50
2018-09-13T07:28:51.043Z,18.40
2018-09-13T07:31:18.254Z,18.20
2018-09-13T07:33:45.596Z,18.20
2018-09-13T07:36:12.819Z,18.20
2018-09-13T07:38:39.906Z,18.20
2018-09-13T07:41:07.108Z,18.40
2018-09-13T07:43:34.410Z,18.50
2018-09-13T07:46:01.692Z,18.60
2018-09-13T07:48:29.203Z,18.80
2018-09-13T07:50:56.469Z,18.80
2018-09-13T07:53:23.636Z,19.00
2018-09-13T07:55:50.894Z,19.10
2018-09-13T07:58:18.090Z,19.20
2018-09-13T08:00:45.271Z,19.40
2018-09-13T08:03:12.470Z,19.30
2018-09-13T08:05:39.588Z,19.30
2018-09-13T08:08:06.771Z,19.20
2018-09-13T08:10:35.092Z,19.30
2018-09-13T08:13:02.361Z,19.50
2018-09-13T08:15:29.584Z,19.80
2018-09-13T08:17:56.776Z,19.80
2018-09-13T08:20:24.049Z,19.80
2018-09-13T08:22:51.278Z,19.80
2018-09-13T08:25:18.413Z,19.80
2018-09-13T08:27:45.579Z,20.00
2018-09-13T08:30:12.876Z,20.00
2018-09-13T08:32:40.229Z,20.00
2018-09-13T08:35:07.585Z,20.00
2018-09-13T08:37:34.621Z,20.00
2018-09-13T08:40:02.125Z,20.00
2018-09-13T08:42:29.237Z,19.90
2018-09-13T08:44:56.435Z,19.80
2018-09-13T08:47:23.559Z,19.70
2018-09-13T08:49:50.795Z,19.80
2018-09-13T08:52:17.987Z,19.80
2018-09-13T08:54:45.155Z,19.90
2018-09-13T08:57:12.370Z,20.00
2018-09-13T08:59:39.646Z,20.00
2018-09-13T09:02:06.995Z,19.80
2018-09-13T09:04:35.318Z,19.70
2018-09-13T09:07:02.513Z,19.50
2018-09-13T09:09:29.771Z,19.40
2018-09-13T09:11:57.047Z,19.50
2018-09-13T09:14:24.225Z,19.50
2018-09-13T09:16:51.416Z,19.50
2018-09-13T09:19:18.591Z,19.70
2018-09-13T09:21:45.742Z,19.70
2018-09-13T09:24:12.973Z,19.90
2018-09-13T09:26:40.138Z,19.80
2018-09-13T09:29:07.467Z,19.80
2018-09-13T09:31:35.262Z,19.90
2018-09-13T09:34:02.494Z,20.00
2018-09-13T09:36:29.680Z,20.00
2018-09-13T09:38:56.921Z,20.10
2018-09-13T09:41:24.174Z,20.20
2018-09-13T09:43:53.504Z,20.20
2018-09-13T09:46:20.648Z,19.90
2018-09-13T09:48:47.908Z,19.80
2018-09-13T09:51:15.256Z,19.70
2018-09-13T09:53:42.470Z,19.70
2018-09-13T09:56:09.918Z,19.80
2018-09-13T09:58:37.246Z,20.00
2018-09-13T10:01:21.624Z,20.20
2018-09-13T10:03:49.672Z,20.30
2018-09-13T10:06:19.007Z,20.30
2018-09-13T10:08:47.345Z,20.30
2018-09-13T10:11:19.315Z,20.40
2018-09-13T10:14:02.412Z,20.40
2018-09-13T10:16:39.325Z,20.30
2018-09-13T10:19:16.683Z,20.50
2018-09-13T10:22:01.172Z,20.60
2018-09-13T10:24:37.222Z,20.70
2018-09-13T10:27:10.235Z,20.70
2018-09-13T10:29:43.369Z,20.70
2018-09-13T10:32:16.679Z,20.60
2018-09-13T10:34:53.032Z,20.40
2018-09-13T10:37:25.973Z,20.20
2018-09-13T10:39:59.049Z,20.30
2018-09-13T10:42:32.116Z,20.40
2018-09-13T10:45:12.735Z,20.40
2018-09-13T10:47:56.480Z,20.30
2018-09-13T10:50:26.055Z,20.20
2018-09-13T10:53:06.205Z,20.20
2018-09-13T10:55:41.711Z,20.20
2018-09-13T10:58:13.930Z,20.30
2018-09-13T11:00:41.931Z,20.30
2018-09-13T11:03:18.572Z,20.20
2018-09-13T11:05:45.916Z,20.00
2018-09-13T11:08:15.078Z,20.00
2018-09-13T11:10:53.747Z,20.20
2018-09-13T11:13:31.731Z,20.30
2018-09-13T11:16:03.195Z,20.50
2018-09-13T11:18:32.243Z,20.60
2018-09-13T11:21:00.491Z,20.60
2018-09-13T11:23:38.787Z,20.50
2018-09-13T11:26:21.697Z,20.60
2018-09-13T11:28:50.956Z,20.70
2018-09-13T11:31:20.626Z,20.60
2018-09-13T11:33:52.061Z,20.50
2018-09-13T11:36:20.861Z,20.50
2018-09-13T11:38:48.235Z,20.60
2018-09-13T11:41:16.972Z,20.60
2018-09-13T11:43:44.500Z,20.60
2018-09-13T11:46:13.960Z,20.70
2018-09-13T11:48:43.208Z,20.80
2018-09-13T11:51:10.564Z,21.00
2018-09-13T11:53:37.922Z,21.30
2018-09-13T11:56:10.656Z,21.30
2018-09-13T11:58:46.329Z,21.30
2018-09-13T12:01:14.548Z,21.40
2018-09-13T12:03:42.841Z,21.60
2018-09-13T12:06:10.390Z,21.70
2018-09-13T12:08:39.369Z,21.80
2018-09-13T12:11:24.432Z,21.70
2018-09-13T12:13:56.640Z,21.80
2018-09-13T12:16:32.629Z,21.70
2018-09-13T12:19:01.281Z,21.60
2018-09-13T12:21:32.480Z,21.50
2018-09-13T12:24:00.701Z,21.50
2018-09-13T12:26:30.600Z,21.40
2018-09-13T12:29:06.159Z,21.30
2018-09-13T12:31:35.876Z,21.00
2018-09-13T12:34:12.143Z,20.90
2018-09-13T12:36:41.745Z,21.10
2018-09-13T12:39:10.860Z,21.30
2018-09-13T12:41:42.376Z,21.30
2018-09-13T12:44:17.400Z,21.30
2018-09-13T12:46:49.164Z,21.20
2018-09-13T12:49:26.653Z,21.00
2018-09-13T12:52:01.777Z,21.10
2018-09-13T12:54:32.532Z,21.20
2018-09-13T12:57:01.264Z,21.40
2018-09-13T12:59:32.478Z,21.40
2018-09-13T13:01:59.950Z,21.50
2018-09-13T13:04:35.824Z,21.50
2018-09-13T13:07:11.406Z,21.30
2018-09-13T13:09:40.356Z,21.30
2018-09-13T13:12:17.247Z,21.30
2018-09-13T13:14:46.764Z,21.40
2018-09-13T13:17:14.544Z,21.40
2018-09-13T13:19:42.064Z,21.40
2018-09-13T13:22:16.488Z,21.40
2018-09-13T13:24:47.237Z,21.40
2018-09-13T13:27:24.877Z,21.40
2018-09-13T13:29:53.024Z,21.30
2018-09-13T13:32:29.638Z,21.20
2018-09-13T13:34:58.697Z,21.00
2018-09-13T13:37:28.604Z,21.00
2018-09-13T13:39:57.689Z,21.00
2018-09-13T13:42:25.932Z,20.90
2018-09-13T13:44:54.769Z,20.90
2018-09-13T13:47:22.736Z,20.90
2018-09-13T13:49:49.907Z,21.00
2018-09-13T13:52:17.152Z,20.90
2018-09-13T13:54:45.424Z,20.80
2018-09-13T13:57:13.125Z,20.80
2018-09-13T13:59:40.414Z,20.90
2018-09-13T14:02:07.529Z,21.20
2018-09-13T14:04:34.847Z,21.30
2018-09-13T14:07:02.001Z,21.20
2018-09-13T14:09:30.513Z,21.20
2018-09-13T14:11:57.660Z,21.30
2018-09-13T14:14:24.867Z,21.40
2018-09-13T14:16:52.073Z,21.40
2018-09-13T14:19:19.225Z,21.40
2018-09-13T14:21:46.351Z,21.40
2018-09-13T14:24:13.584Z,21.40
2018-09-13T14:26:40.768Z,21.40
2018-09-13T14:29:07.960Z,21.30
2018-09-13T14:31:35.751Z,21.20
2018-09-13T14:34:03.672Z,21.30
2018-09-13T14:36:30.869Z,21.40
2018-09-13T14:38:58.208Z,21.40
2018-09-13T14:41:25.421Z,21.60
2018-09-13T14:43:52.784Z,21.70
2018-09-13T14:46:20.545Z,21.80
2018-09-13T14:48:47.776Z,21.80
2018-09-13T14:51:15.039Z,21.90
2018-09-13T14:53:43.324Z,22.00
2018-09-13T14:56:10.456Z,21.80
2018-09-13T14:58:37.773Z,21.80
2018-09-13T15:01:05.239Z,21.90
2018-09-13T15:03:32.503Z,21.80
2018-09-13T15:05:59.580Z,21.80
2018-09-13T15:08:27.705Z,21.80
2018-09-13T15:10:54.883Z,21.90
2018-09-13T15:13:22.038Z,21.90
2018-09-13T15:15:49.298Z,21.80
2018-09-13T15:18:17.334Z,21.60
2018-09-13T15:20:44.480Z,21.50
2018-09-13T15:23:14.099Z,21.60
2018-09-13T15:25:41.299Z,21.50
2018-09-13T15:28:08.941Z,21.40
2018-09-13T15:30:37.554Z,21.40
2018-09-13T15:33:06.406Z,21.50
2018-09-13T15:35:33.641Z,21.50
2018-09-13T15:38:01.170Z,21.30
2018-09-13T15:40:28.400Z,21.30
2018-09-13T15:42:55.573Z,21.20
2018-09-13T15:45:23.910Z,21.40
2018-09-13T15:47:52.222Z,21.50
2018-09-13T15:50:20.569Z,21.50
2018-09-13T15:52:47.787Z,21.40
2018-09-13T15:55:15.555Z,21.40
2018-09-13T15:57:42.753Z,21.40
2018-09-13T16:00:09.938Z,21.40
2018-09-13T16:02:37.393Z,21.30
2018-09-13T16:05:04.585Z,21.30
2018-09-13T16:07:31.752Z,21.40
2018-09-13T16:09:59.148Z,21.50
2018-09-13T16:12:26.356Z,21.40
2018-09-13T16:14:53.467Z,21.40
2018-09-13T16:17:20.764Z,21.30
2018-09-13T16:19:48.145Z,21.10
2018-09-13T16:22:15.290Z,21.10
2018-09-13T16:24:42.406Z,21.10
2018-09-13T16:27:09.588Z,21.20
2018-09-13T16:29:37.587Z,21.20
2018-09-13T16:32:04.731Z,21.20
2018-09-13T16:34:32.026Z,21.20
2018-09-13T16:37:04.207Z,21.20
2018-09-13T16:39:36.890Z,21.20
2018-09-13T16:42:10.436Z,21.30
2018-09-13T16:44:43.539Z,21.30
2018-09-13T16:47:16.578Z,21.30
2018-09-13T16:49:43.688Z,21.20
2018-09-13T16:52:10.932Z,21.20
2018-09-13T16:54:38.306Z,21.20
2018-09-13T16:57:05.469Z,21.10
2018-09-13T16:59:34.294Z,21.00
2018-09-13T17:02:02.533Z,20.90
2018-09-13T17:04:29.785Z,21.00
2018-09-13T17:06:57.021Z,21.00
2018-09-13T17:09:24.136Z,21.10
2018-09-13T17:11:51.312Z,21.00
2018-09-13T17:14:18.498Z,21.10
2018-09-13T17:16:45.614Z,21.20
2018-09-13T17:19:12.817Z,21.30
2018-09-13T17:21:40.223Z,21.20
2018-09-13T17:24:07.364Z,21.20
2018-09-13T17:26:34.619Z,21.10
2018-09-13T17:29:02.189Z,21.00
2018-09-13T17:31:29.332Z,20.90
2018-09-13T17:33:56.563Z,21.00
2018-09-13T17:36:23.873Z,20.90
2018-09-13T17:38:51.337Z,20.90
2018-09-13T17:41:18.525Z,20.90
2018-09-13T17:43:45.745Z,20.90
2018-09-13T17:46:12.936Z,20.80
2018-09-13T17:48:40.205Z,20.80
2018-09-13T17:51:07.886Z,20.80
2018-09-13T17:53:35.026Z,20.80
2018-09-13T17:56:02.201Z,20.80
2018-09-13T17:58:29.347Z,20.80
2018-09-13T18:00:56.775Z,20.80
2018-09-13T18:03:24.001Z,20.70
2018-09-13T18:05:51.265Z,20.70
2018-09-13T18:08:18.407Z,20.70
2018-09-13T18:10:45.556Z,20.60
2018-09-13T18:13:12.746Z,20.50
2018-09-13T18:15:39.876Z,20.60
2018-09-13T18:18:07.049Z,20.60
2018-09-13T18:20:34.318Z,20.60
2018-09-13T18:23:01.575Z,20.60
2018-09-13T18:25:28.780Z,20.60
2018-09-13T18:27:55.877Z,20.60
2018-09-13T18:30:23.121Z,20.60
2018-09-13T18:32:50.300Z,20.50
2018-09-13T18:35:17.577Z,20.50
2018-09-13T18:37:44.717Z,20.40
2018-09-13T18:40:11.887Z,20.40
2018-09-13T18:42:39.073Z,20.50
2018-09-13T18:45:06.675Z,20.50
2018-09-13T18:47:34.005Z,20.40
2018-09-13T18:50:01.482Z,20.30
2018-09-13T18:52:29.328Z,20.30
2018-09-13T18:54:56.781Z,20.30
2018-09-13T18:57:24.031Z,20.30
2018-09-13T18:59:52.405Z,20.20
2018-09-13T19:02:20.614Z,20.30
2018-09-13T19:04:47.744Z,20.20
2018-09-13T19:07:15.185Z,20.10
2018-09-13T19:09:42.420Z,20.00
2018-09-13T19:12:09.604Z,20.00
2018-09-13T19:14:38.125Z,19.90
2018-09-13T19:17:05.389Z,19.90
2018-09-13T19:19:32.625Z,19.90
2018-09-13T19:21:59.734Z,19.90
2018-09-13T19:24:26.908Z,19.90
2018-09-13T19:26:54.471Z,19.90
2018-09-13T19:29:22.938Z,19.80
2018-09-13T19:31:51.039Z,19.90
2018-09-13T19:34:19.100Z,20.00
2018-09-13T19:36:49.757Z,19.90
2018-09-13T19:39:18.089Z,19.90
2018-09-13T19:41:46.864Z,19.80
2018-09-13T19:44:14.449Z,19.80
2018-09-13T19:46:41.754Z,19.90
2018-09-13T19:49:09.215Z,19.90
2018-09-13T19:51:36.661Z,19.80
2018-09-13T19:54:04.506Z,19.80
2018-09-13T19:56:32.611Z,19.80
2018-09-13T19:58:59.801Z,19.90
2018-09-13T20:01:27.505Z,19.80
2018-09-13T20:03:55.570Z,19.60
2018-09-13T20:06:22.872Z,19.60
2018-09-13T20:08:50.582Z,19.50
2018-09-13T20:11:18.452Z,19.60
2018-09-13T20:13:46.513Z,19.40
2018-09-13T20:16:14.610Z,19.20
2018-09-13T20:18:41.958Z,19.20
2018-09-13T20:21:10.394Z,19.20
2018-09-13T20:23:40.188Z,19.20
2018-09-13T20:26:09.626Z,19.10
2018-09-13T20:28:37.780Z,19.00
2018-09-13T20:31:05.251Z,18.70
2018-09-13T20:33:33.259Z,18.70
2018-09-13T20:36:01.373Z,18.70
2018-09-13T20:38:29.298Z,18.50
2018-09-13T20:40:57.358Z,18.70
2018-09-13T20:43:25.692Z,18.80
2018-09-13T20:45:53.223Z,18.60
2018-09-13T20:48:20.389Z,18.60
2018-09-13T20:50:47.603Z,18.50
2018-09-13T20:53:16.009Z,18.50
2018-09-13T20:55:44.186Z,18.50
2018-09-13T20:58:11.518Z,18.60
2018-09-13T21:00:39.994Z,18.40
2018-09-13T21:03:07.170Z,18.20
2018-09-13T21:05:34.510Z,18.00
2018-09-13T21:08:01.947Z,18.00
2018-09-13T21:10:29.584Z,17.90
2018-09-13T21:12:57.092Z,18.00
2018-09-13T21:15:24.361Z,17.90
2018-09-13T21:17:52.216Z,17.80
2018-09-13T21:20:19.640Z,17.70
2018-09-13T21:22:46.941Z,17.80
2018-09-13T21:25:16.621Z,17.90
2018-09-13T21:27:44.927Z,17.90
2018-09-13T21:30:13.147Z,18.00
2018-09-13T21:32:41.022Z,17.90
2018-09-13T21:35:08.829Z,17.90
2018-09-13T21:37:36.549Z,17.80
2018-09-13T21:40:03.891Z,17.80
2018-09-13T21:42:31.598Z,17.60
2018-09-13T21:44:59.847Z,17.60
2018-09-13T21:47:27.235Z,17.70
2018-09-13T21:49:54.788Z,17.60
2018-09-13T21:52:23.536Z,17.50
2018-09-13T21:54:50.751Z,17.60
2018-09-13T21:57:18.065Z,17.60
2018-09-13T21:59:45.979Z,17.60
2018-09-13T22:02:13.529Z,17.60
2018-09-13T22:04:40.801Z,17.60
2018-09-13T22:07:09.684Z,17.30
2018-09-13T22:09:39.340Z,17.20
2018-09-13T22:12:07.218Z,17.30
2018-09-13T22:14:34.684Z,17.30
2018-09-13T22:17:02.057Z,17.30
2018-09-13T22:19:30.035Z,17.40
2018-09-13T22:21:57.778Z,17.30
2018-09-13T22:24:24.981Z,17.40
2018-09-13T22:26:52.302Z,17.30
2018-09-13T22:29:20.117Z,17.20
2018-09-13T22:31:47.870Z,17.30
2018-09-13T22:34:15.092Z,17.30
2018-09-13T22:36:42.291Z,17.20
2018-09-13T22:39:10.629Z,17.10
2018-09-13T22:41:39.027Z,17.00
2018-09-13T22:44:06.515Z,17.00
2018-09-13T22:46:36.863Z,17.10
2018-09-13T22:49:06.882Z,17.00
2018-09-13T22:51:34.272Z,17.00
2018-09-13T22:54:01.875Z,17.00
2018-09-13T22:56:29.202Z,17.00
2018-09-13T22:58:56.452Z,17.00
2018-09-13T23:01:23.916Z,17.00
2018-09-13T23:03:51.115Z,17.00
2018-09-13T23:06:18.320Z,17.00
2018-09-13T23:08:45.644Z,16.90
2018-09-13T23:11:12.883Z,16.80
2018-09-13T23:13:40.121Z,16.80
2018-09-13T23:16:07.413Z,16.90
2018-09-13T23:18:34.517Z,16.90
2018-09-13T23:21:01.903Z,16.90
2018-09-13T23:23:29.182Z,17.00
2018-09-13T23:25:56.401Z,17.00
2018-09-13T23:28:23.655Z,17.10
2018-09-13T23:30:50.944Z,17.10
2018-09-13T23:33:18.204Z,17.00
2018-09-13T23:35:45.654Z,16.90
2018-09-13T23:38:12.966Z,16.80
2018-09-13T23:40:40.502Z,16.80
2018-09-13T23:43:07.640Z,16.90
2018-09-13T23:45:34.871Z,16.90
2018-09-13T23:48:02.179Z,17.00
2018-09-13T23:50:30.614Z,17.10
2018-09-13T23:52:58.123Z,17.20
2018-09-13T23:55:25.323Z,17.30
2018-09-13T23:57:52.517Z,17.30
